sensor_id;sensor_type;location;lat;lon;timestamp;P1;durP1;ratioP1;P2;durP2;ratioP2
2750;SDS011;1383;48.362;10.908;2023-09-30T00:00:08;25.10;;;13.10;;
2750;SDS011;1383;48.362;10.908;2023-09-30T00:02:35;25.37;;;12.20;;
2750;SDS011;1383;48.362;10.908;2023-09-30T00:05:02;25.47;;;13.67;;
2750;SDS011;1383;48.362;10.908;2023-09-30T00:07:30;22.30;;;12.37;;
2750;SDS011;1383;48.362;10.908;2023-09-30T00:09:58;24.83;;;12.53;;
2750;SDS011;1383;48.362;10.908;2023-09-30T00:12:25;22.00;;;12.07;;
2750;SDS011;1383;48.362;10.908;2023-09-30T00:14:53;21.37;;;11.70;;
2750;SDS011;1383;48.362;10.908;2023-09-30T00:17:20;21.33;;;12.73;;
2750;SDS011;1383;48.362;10.908;2023-09-30T00:19:47;24.57;;;13.50;;
2750;SDS011;1383;48.362;10.908;2023-09-30T00:22:14;23.23;;;13.23;;
2750;SDS011;1383;48.362;10.908;2023-09-30T00:24:41;25.33;;;13.20;;
2750;SDS011;1383;48.362;10.908;2023-09-30T00:27:09;20.63;;;11.17;;
2750;SDS011;1383;48.362;10.908;2023-09-30T00:29:36;25.30;;;13.70;;
2750;SDS011;1383;48.362;10.908;2023-09-30T00:32:03;25.70;;;14.40;;
2750;SDS011;1383;48.362;10.908;2023-09-30T00:34:36;22.40;;;11.77;;
2750;SDS011;1383;48.362;10.908;2023-09-30T00:37:03;22.67;;;12.43;;
2750;SDS011;1383;48.362;10.908;2023-09-30T00:39:31;23.83;;;12.30;;
2750;SDS011;1383;48.362;10.908;2023-09-30T00:41:59;23.70;;;12.27;;
2750;SDS011;1383;48.362;10.908;2023-09-30T00:44:26;20.57;;;13.27;;
2750;SDS011;1383;48.362;10.908;2023-09-30T00:46:56;20.63;;;11.27;;
2750;SDS011;1383;48.362;10.908;2023-09-30T00:49:23;24.20;;;12.07;;
2750;SDS011;1383;48.362;10.908;2023-09-30T00:51:51;26.03;;;14.37;;
2750;SDS011;1383;48.362;10.908;2023-09-30T00:54:19;23.83;;;11.50;;
2750;SDS011;1383;48.362;10.908;2023-09-30T00:56:48;23.93;;;11.17;;
2750;SDS011;1383;48.362;10.908;2023-09-30T00:59:17;23.30;;;12.70;;
2750;SDS011;1383;48.362;10.908;2023-09-30T01:01:45;24.90;;;13.17;;
2750;SDS011;1383;48.362;10.908;2023-09-30T01:04:13;19.40;;;11.60;;
2750;SDS011;1383;48.362;10.908;2023-09-30T01:06:41;22.10;;;13.43;;
2750;SDS011;1383;48.362;10.908;2023-09-30T01:09:08;19.70;;;11.83;;
2750;SDS011;1383;48.362;10.908;2023-09-30T01:11:35;21.50;;;11.10;;
2750;SDS011;1383;48.362;10.908;2023-09-30T01:14:02;20.07;;;11.60;;
2750;SDS011;1383;48.362;10.908;2023-09-30T01:16:29;22.20;;;12.27;;
2750;SDS011;1383;48.362;10.908;2023-09-30T01:18:56;18.90;;;11.50;;
2750;SDS011;1383;48.362;10.908;2023-09-30T01:21:24;23.00;;;12.90;;
2750;SDS011;1383;48.362;10.908;2023-09-30T01:23:54;25.33;;;13.03;;
2750;SDS011;1383;48.362;10.908;2023-09-30T01:26:21;23.77;;;13.20;;
2750;SDS011;1383;48.362;10.908;2023-09-30T01:28:49;23.00;;;12.63;;
2750;SDS011;1383;48.362;10.908;2023-09-30T01:31:16;22.63;;;11.83;;
2750;SDS011;1383;48.362;10.908;2023-09-30T01:33:43;21.93;;;11.80;;
2750;SDS011;1383;48.362;10.908;2023-09-30T01:36:10;24.43;;;13.50;;
2750;SDS011;1383;48.362;10.908;2023-09-30T01:38:37;28.40;;;13.10;;
2750;SDS011;1383;48.362;10.908;2023-09-30T01:41:04;22.93;;;12.03;;
2750;SDS011;1383;48.362;10.908;2023-09-30T01:43:31;21.93;;;12.80;;
2750;SDS011;1383;48.362;10.908;2023-09-30T01:45:59;19.33;;;11.20;;
2750;SDS011;1383;48.362;10.908;2023-09-30T01:48:26;26.03;;;12.97;;
2750;SDS011;1383;48.362;10.908;2023-09-30T01:50:53;19.40;;;10.83;;
2750;SDS011;1383;48.362;10.908;2023-09-30T01:53:20;23.43;;;11.47;;
2750;SDS011;1383;48.362;10.908;2023-09-30T01:55:47;19.03;;;11.63;;
2750;SDS011;1383;48.362;10.908;2023-09-30T01:58:14;18.40;;;10.20;;
2750;SDS011;1383;48.362;10.908;2023-09-30T02:00:41;26.23;;;12.83;;
2750;SDS011;1383;48.362;10.908;2023-09-30T02:03:08;22.23;;;12.17;;
2750;SDS011;1383;48.362;10.908;2023-09-30T02:05:35;22.70;;;12.23;;
2750;SDS011;1383;48.362;10.908;2023-09-30T02:08:04;25.53;;;13.17;;
2750;SDS011;1383;48.362;10.908;2023-09-30T02:10:32;22.90;;;12.07;;
2750;SDS011;1383;48.362;10.908;2023-09-30T02:12:59;20.07;;;11.60;;
2750;SDS011;1383;48.362;10.908;2023-09-30T02:15:27;22.77;;;13.30;;
2750;SDS011;1383;48.362;10.908;2023-09-30T02:17:54;22.87;;;11.73;;
2750;SDS011;1383;48.362;10.908;2023-09-30T02:20:21;19.03;;;10.60;;
2750;SDS011;1383;48.362;10.908;2023-09-30T02:22:52;19.20;;;11.43;;
2750;SDS011;1383;48.362;10.908;2023-09-30T02:25:20;17.43;;;11.47;;
2750;SDS011;1383;48.362;10.908;2023-09-30T02:27:49;22.07;;;10.67;;
2750;SDS011;1383;48.362;10.908;2023-09-30T02:30:16;21.10;;;11.97;;
2750;SDS011;1383;48.362;10.908;2023-09-30T02:32:43;27.00;;;12.97;;
2750;SDS011;1383;48.362;10.908;2023-09-30T02:35:13;23.17;;;11.93;;
2750;SDS011;1383;48.362;10.908;2023-09-30T02:37:42;22.27;;;11.60;;
2750;SDS011;1383;48.362;10.908;2023-09-30T02:40:09;23.37;;;11.63;;
2750;SDS011;1383;48.362;10.908;2023-09-30T02:42:38;23.50;;;12.03;;
2750;SDS011;1383;48.362;10.908;2023-09-30T02:45:06;23.80;;;12.70;;
2750;SDS011;1383;48.362;10.908;2023-09-30T02:47:35;21.50;;;11.97;;
2750;SDS011;1383;48.362;10.908;2023-09-30T02:50:04;21.60;;;12.20;;
2750;SDS011;1383;48.362;10.908;2023-09-30T02:52:34;19.20;;;10.07;;
2750;SDS011;1383;48.362;10.908;2023-09-30T02:55:02;21.40;;;11.97;;
2750;SDS011;1383;48.362;10.908;2023-09-30T02:57:30;18.13;;;11.57;;
2750;SDS011;1383;48.362;10.908;2023-09-30T02:59:58;22.30;;;11.33;;
2750;SDS011;1383;48.362;10.908;2023-09-30T03:02:27;20.77;;;10.97;;
2750;SDS011;1383;48.362;10.908;2023-09-30T03:04:54;22.33;;;10.60;;
2750;SDS011;1383;48.362;10.908;2023-09-30T03:07:24;19.20;;;11.00;;
2750;SDS011;1383;48.362;10.908;2023-09-30T03:09:51;18.73;;;10.07;;
2750;SDS011;1383;48.362;10.908;2023-09-30T03:12:20;20.10;;;10.47;;
2750;SDS011;1383;48.362;10.908;2023-09-30T03:14:47;23.90;;;12.50;;
2750;SDS011;1383;48.362;10.908;2023-09-30T03:17:14;17.57;;;10.10;;
2750;SDS011;1383;48.362;10.908;2023-09-30T03:19:41;20.67;;;10.87;;
2750;SDS011;1383;48.362;10.908;2023-09-30T03:22:08;20.40;;;11.60;;
2750;SDS011;1383;48.362;10.908;2023-09-30T03:24:38;23.70;;;12.20;;
2750;SDS011;1383;48.362;10.908;2023-09-30T03:27:06;33.03;;;21.00;;
2750;SDS011;1383;48.362;10.908;2023-09-30T03:29:37;28.03;;;14.80;;
2750;SDS011;1383;48.362;10.908;2023-09-30T03:32:07;21.93;;;10.83;;
2750;SDS011;1383;48.362;10.908;2023-09-30T03:34:34;19.30;;;11.17;;
2750;SDS011;1383;48.362;10.908;2023-09-30T03:37:03;19.77;;;10.63;;
2750;SDS011;1383;48.362;10.908;2023-09-30T03:39:33;21.07;;;10.80;;
2750;SDS011;1383;48.362;10.908;2023-09-30T03:42:00;22.07;;;10.00;;
2750;SDS011;1383;48.362;10.908;2023-09-30T03:44:27;21.37;;;10.87;;
2750;SDS011;1383;48.362;10.908;2023-09-30T03:46:54;15.83;;;9.20;;
2750;SDS011;1383;48.362;10.908;2023-09-30T03:49:23;20.53;;;10.20;;
2750;SDS011;1383;48.362;10.908;2023-09-30T03:51:50;21.00;;;9.60;;
2750;SDS011;1383;48.362;10.908;2023-09-30T03:54:19;21.40;;;11.63;;
2750;SDS011;1383;48.362;10.908;2023-09-30T03:56:47;18.10;;;10.93;;
2750;SDS011;1383;48.362;10.908;2023-09-30T03:59:14;18.97;;;10.10;;
2750;SDS011;1383;48.362;10.908;2023-09-30T04:01:42;19.70;;;10.33;;
2750;SDS011;1383;48.362;10.908;2023-09-30T04:04:09;16.50;;;10.03;;
2750;SDS011;1383;48.362;10.908;2023-09-30T04:06:36;15.13;;;8.90;;
2750;SDS011;1383;48.362;10.908;2023-09-30T04:09:06;19.00;;;10.03;;
2750;SDS011;1383;48.362;10.908;2023-09-30T04:11:36;18.07;;;9.50;;
2750;SDS011;1383;48.362;10.908;2023-09-30T04:14:07;19.93;;;9.60;;
2750;SDS011;1383;48.362;10.908;2023-09-30T04:16:34;21.00;;;9.40;;
2750;SDS011;1383;48.362;10.908;2023-09-30T04:19:04;17.77;;;10.13;;
2750;SDS011;1383;48.362;10.908;2023-09-30T04:21:31;17.77;;;9.37;;
2750;SDS011;1383;48.362;10.908;2023-09-30T04:24:00;14.50;;;9.10;;
2750;SDS011;1383;48.362;10.908;2023-09-30T04:26:27;21.20;;;9.77;;
2750;SDS011;1383;48.362;10.908;2023-09-30T04:28:56;16.90;;;9.00;;
2750;SDS011;1383;48.362;10.908;2023-09-30T04:31:22;16.93;;;10.07;;
2750;SDS011;1383;48.362;10.908;2023-09-30T04:33:50;15.30;;;8.13;;
2750;SDS011;1383;48.362;10.908;2023-09-30T04:36:18;14.03;;;8.43;;
2750;SDS011;1383;48.362;10.908;2023-09-30T04:38:45;14.83;;;9.20;;
2750;SDS011;1383;48.362;10.908;2023-09-30T04:41:12;17.73;;;8.03;;
2750;SDS011;1383;48.362;10.908;2023-09-30T04:43:39;16.57;;;9.07;;
2750;SDS011;1383;48.362;10.908;2023-09-30T04:46:06;28.67;;;17.07;;
2750;SDS011;1383;48.362;10.908;2023-09-30T04:48:39;16.90;;;10.77;;
2750;SDS011;1383;48.362;10.908;2023-09-30T04:51:07;17.50;;;9.83;;
2750;SDS011;1383;48.362;10.908;2023-09-30T04:53:35;12.30;;;8.50;;
2750;SDS011;1383;48.362;10.908;2023-09-30T04:56:03;15.97;;;7.77;;
2750;SDS011;1383;48.362;10.908;2023-09-30T04:58:30;14.60;;;7.87;;
2750;SDS011;1383;48.362;10.908;2023-09-30T05:00:57;14.47;;;7.60;;
2750;SDS011;1383;48.362;10.908;2023-09-30T05:03:24;15.30;;;9.30;;
2750;SDS011;1383;48.362;10.908;2023-09-30T05:05:52;13.43;;;8.50;;
2750;SDS011;1383;48.362;10.908;2023-09-30T05:08:24;13.40;;;9.37;;
2750;SDS011;1383;48.362;10.908;2023-09-30T05:10:52;15.80;;;7.93;;
2750;SDS011;1383;48.362;10.908;2023-09-30T05:13:22;15.20;;;8.77;;
2750;SDS011;1383;48.362;10.908;2023-09-30T05:15:52;19.37;;;9.60;;
2750;SDS011;1383;48.362;10.908;2023-09-30T05:18:20;16.30;;;8.27;;
2750;SDS011;1383;48.362;10.908;2023-09-30T05:20:47;13.70;;;8.17;;
2750;SDS011;1383;48.362;10.908;2023-09-30T05:23:16;16.00;;;9.20;;
2750;SDS011;1383;48.362;10.908;2023-09-30T05:25:44;22.97;;;11.10;;
2750;SDS011;1383;48.362;10.908;2023-09-30T05:28:11;24.37;;;14.23;;
2750;SDS011;1383;48.362;10.908;2023-09-30T05:30:39;17.03;;;8.87;;
2750;SDS011;1383;48.362;10.908;2023-09-30T05:33:07;19.00;;;8.70;;
2750;SDS011;1383;48.362;10.908;2023-09-30T05:35:35;13.60;;;9.00;;
2750;SDS011;1383;48.362;10.908;2023-09-30T05:38:02;17.47;;;8.30;;
2750;SDS011;1383;48.362;10.908;2023-09-30T05:40:30;15.10;;;9.70;;
2750;SDS011;1383;48.362;10.908;2023-09-30T05:42:57;19.57;;;9.87;;
2750;SDS011;1383;48.362;10.908;2023-09-30T05:45:26;13.47;;;8.70;;
2750;SDS011;1383;48.362;10.908;2023-09-30T05:47:57;20.07;;;9.83;;
2750;SDS011;1383;48.362;10.908;2023-09-30T05:50:29;14.40;;;8.27;;
2750;SDS011;1383;48.362;10.908;2023-09-30T05:52:56;13.03;;;8.30;;
2750;SDS011;1383;48.362;10.908;2023-09-30T05:55:23;15.73;;;9.33;;
2750;SDS011;1383;48.362;10.908;2023-09-30T05:57:52;20.63;;;8.90;;
2750;SDS011;1383;48.362;10.908;2023-09-30T06:00:21;13.63;;;8.20;;
2750;SDS011;1383;48.362;10.908;2023-09-30T06:02:58;15.57;;;8.20;;
2750;SDS011;1383;48.362;10.908;2023-09-30T06:05:25;14.10;;;7.10;;
2750;SDS011;1383;48.362;10.908;2023-09-30T06:07:53;13.00;;;7.37;;
2750;SDS011;1383;48.362;10.908;2023-09-30T06:10:22;17.10;;;7.27;;
2750;SDS011;1383;48.362;10.908;2023-09-30T06:12:50;11.20;;;5.97;;
2750;SDS011;1383;48.362;10.908;2023-09-30T06:15:22;12.07;;;5.97;;
2750;SDS011;1383;48.362;10.908;2023-09-30T06:17:52;11.87;;;6.60;;
2750;SDS011;1383;48.362;10.908;2023-09-30T06:20:20;13.93;;;7.83;;
2750;SDS011;1383;48.362;10.908;2023-09-30T06:22:49;13.27;;;6.30;;
2750;SDS011;1383;48.362;10.908;2023-09-30T06:25:16;10.03;;;6.23;;
2750;SDS011;1383;48.362;10.908;2023-09-30T06:27:44;10.90;;;6.00;;
2750;SDS011;1383;48.362;10.908;2023-09-30T06:30:12;12.73;;;6.63;;
2750;SDS011;1383;48.362;10.908;2023-09-30T06:32:40;11.03;;;5.43;;
2750;SDS011;1383;48.362;10.908;2023-09-30T06:35:08;11.17;;;6.60;;
2750;SDS011;1383;48.362;10.908;2023-09-30T06:37:41;13.30;;;6.33;;
2750;SDS011;1383;48.362;10.908;2023-09-30T06:40:12;10.30;;;6.23;;
2750;SDS011;1383;48.362;10.908;2023-09-30T06:42:39;12.53;;;6.80;;
2750;SDS011;1383;48.362;10.908;2023-09-30T06:45:07;9.70;;;6.10;;
2750;SDS011;1383;48.362;10.908;2023-09-30T06:47:36;12.30;;;6.10;;
2750;SDS011;1383;48.362;10.908;2023-09-30T06:50:11;10.40;;;5.80;;
2750;SDS011;1383;48.362;10.908;2023-09-30T06:52:43;17.13;;;6.30;;
2750;SDS011;1383;48.362;10.908;2023-09-30T06:55:16;9.13;;;5.90;;
2750;SDS011;1383;48.362;10.908;2023-09-30T06:57:43;9.93;;;6.13;;
2750;SDS011;1383;48.362;10.908;2023-09-30T07:00:11;10.57;;;5.47;;
2750;SDS011;1383;48.362;10.908;2023-09-30T07:02:39;7.80;;;5.30;;
2750;SDS011;1383;48.362;10.908;2023-09-30T07:05:11;10.70;;;5.43;;
2750;SDS011;1383;48.362;10.908;2023-09-30T07:07:39;8.27;;;5.00;;
2750;SDS011;1383;48.362;10.908;2023-09-30T07:10:08;8.70;;;6.10;;
2750;SDS011;1383;48.362;10.908;2023-09-30T07:12:35;9.23;;;6.27;;
2750;SDS011;1383;48.362;10.908;2023-09-30T07:15:03;11.43;;;5.20;;
2750;SDS011;1383;48.362;10.908;2023-09-30T07:17:34;9.83;;;6.00;;
2750;SDS011;1383;48.362;10.908;2023-09-30T07:20:02;11.77;;;5.80;;
2750;SDS011;1383;48.362;10.908;2023-09-30T07:22:31;9.97;;;5.90;;
2750;SDS011;1383;48.362;10.908;2023-09-30T07:25:15;10.43;;;6.10;;
2750;SDS011;1383;48.362;10.908;2023-09-30T07:27:44;8.27;;;5.23;;
2750;SDS011;1383;48.362;10.908;2023-09-30T07:30:14;7.40;;;5.37;;
2750;SDS011;1383;48.362;10.908;2023-09-30T07:32:42;6.57;;;4.83;;
2750;SDS011;1383;48.362;10.908;2023-09-30T07:35:10;8.37;;;5.97;;
2750;SDS011;1383;48.362;10.908;2023-09-30T07:37:43;8.33;;;5.00;;
2750;SDS011;1383;48.362;10.908;2023-09-30T07:40:11;6.20;;;5.10;;
2750;SDS011;1383;48.362;10.908;2023-09-30T07:42:38;9.60;;;4.97;;
2750;SDS011;1383;48.362;10.908;2023-09-30T07:45:05;9.20;;;4.97;;
2750;SDS011;1383;48.362;10.908;2023-09-30T07:47:33;7.27;;;4.30;;
2750;SDS011;1383;48.362;10.908;2023-09-30T07:50:01;7.60;;;4.60;;
2750;SDS011;1383;48.362;10.908;2023-09-30T07:52:32;5.73;;;4.20;;
2750;SDS011;1383;48.362;10.908;2023-09-30T07:54:59;6.60;;;4.60;;
2750;SDS011;1383;48.362;10.908;2023-09-30T07:57:26;7.87;;;5.20;;
2750;SDS011;1383;48.362;10.908;2023-09-30T07:59:53;7.90;;;4.93;;
2750;SDS011;1383;48.362;10.908;2023-09-30T08:02:21;9.77;;;5.10;;
2750;SDS011;1383;48.362;10.908;2023-09-30T08:04:49;13.00;;;8.30;;
2750;SDS011;1383;48.362;10.908;2023-09-30T08:07:16;9.87;;;5.30;;
2750;SDS011;1383;48.362;10.908;2023-09-30T08:09:42;10.73;;;6.10;;
2750;SDS011;1383;48.362;10.908;2023-09-30T08:12:09;8.07;;;5.00;;
2750;SDS011;1383;48.362;10.908;2023-09-30T08:14:36;8.27;;;4.57;;
2750;SDS011;1383;48.362;10.908;2023-09-30T08:17:03;6.87;;;4.83;;
2750;SDS011;1383;48.362;10.908;2023-09-30T08:19:30;6.53;;;4.67;;
2750;SDS011;1383;48.362;10.908;2023-09-30T08:21:57;7.00;;;5.10;;
2750;SDS011;1383;48.362;10.908;2023-09-30T08:24:24;6.97;;;4.63;;
2750;SDS011;1383;48.362;10.908;2023-09-30T08:26:51;5.17;;;3.60;;
2750;SDS011;1383;48.362;10.908;2023-09-30T08:29:18;7.27;;;3.73;;
2750;SDS011;1383;48.362;10.908;2023-09-30T08:31:45;6.63;;;4.30;;
2750;SDS011;1383;48.362;10.908;2023-09-30T08:34:12;6.80;;;3.70;;
2750;SDS011;1383;48.362;10.908;2023-09-30T08:36:41;5.30;;;3.63;;
2750;SDS011;1383;48.362;10.908;2023-09-30T08:39:08;8.37;;;4.50;;
2750;SDS011;1383;48.362;10.908;2023-09-30T08:41:36;7.30;;;4.07;;
2750;SDS011;1383;48.362;10.908;2023-09-30T08:44:03;7.53;;;4.20;;
2750;SDS011;1383;48.362;10.908;2023-09-30T08:46:31;5.73;;;3.50;;
2750;SDS011;1383;48.362;10.908;2023-09-30T08:49:00;4.97;;;3.70;;
2750;SDS011;1383;48.362;10.908;2023-09-30T08:51:30;7.73;;;3.80;;
2750;SDS011;1383;48.362;10.908;2023-09-30T08:53:59;10.47;;;4.27;;
2750;SDS011;1383;48.362;10.908;2023-09-30T08:56:28;5.60;;;4.17;;
2750;SDS011;1383;48.362;10.908;2023-09-30T08:58:57;7.00;;;4.80;;
2750;SDS011;1383;48.362;10.908;2023-09-30T09:01:29;10.47;;;6.30;;
2750;SDS011;1383;48.362;10.908;2023-09-30T09:03:58;7.73;;;4.70;;
2750;SDS011;1383;48.362;10.908;2023-09-30T09:06:25;6.57;;;5.00;;
2750;SDS011;1383;48.362;10.908;2023-09-30T09:08:52;9.53;;;6.97;;
2750;SDS011;1383;48.362;10.908;2023-09-30T09:11:19;7.43;;;5.77;;
2750;SDS011;1383;48.362;10.908;2023-09-30T09:13:47;5.50;;;4.37;;
2750;SDS011;1383;48.362;10.908;2023-09-30T09:16:17;4.83;;;4.10;;
2750;SDS011;1383;48.362;10.908;2023-09-30T09:18:45;6.50;;;5.20;;
2750;SDS011;1383;48.362;10.908;2023-09-30T09:21:17;4.60;;;3.70;;
2750;SDS011;1383;48.362;10.908;2023-09-30T09:23:47;6.10;;;4.00;;
2750;SDS011;1383;48.362;10.908;2023-09-30T09:26:31;5.80;;;3.50;;
2750;SDS011;1383;48.362;10.908;2023-09-30T09:29:02;5.07;;;4.40;;
2750;SDS011;1383;48.362;10.908;2023-09-30T09:31:34;5.03;;;3.77;;
2750;SDS011;1383;48.362;10.908;2023-09-30T09:34:02;5.63;;;3.87;;
2750;SDS011;1383;48.362;10.908;2023-09-30T09:36:43;5.30;;;3.63;;
2750;SDS011;1383;48.362;10.908;2023-09-30T09:39:11;7.83;;;4.33;;
2750;SDS011;1383;48.362;10.908;2023-09-30T09:41:49;6.30;;;3.83;;
2750;SDS011;1383;48.362;10.908;2023-09-30T09:44:19;4.30;;;3.73;;
2750;SDS011;1383;48.362;10.908;2023-09-30T09:46:48;6.83;;;4.80;;
2750;SDS011;1383;48.362;10.908;2023-09-30T09:49:17;6.57;;;3.97;;
2750;SDS011;1383;48.362;10.908;2023-09-30T09:51:45;5.83;;;3.60;;
2750;SDS011;1383;48.362;10.908;2023-09-30T09:54:16;7.70;;;4.70;;
2750;SDS011;1383;48.362;10.908;2023-09-30T09:56:44;6.90;;;4.13;;
2750;SDS011;1383;48.362;10.908;2023-09-30T09:59:11;7.77;;;4.00;;
2750;SDS011;1383;48.362;10.908;2023-09-30T10:01:42;8.80;;;4.60;;
2750;SDS011;1383;48.362;10.908;2023-09-30T10:04:11;7.03;;;4.57;;
2750;SDS011;1383;48.362;10.908;2023-09-30T10:06:42;8.40;;;4.70;;
2750;SDS011;1383;48.362;10.908;2023-09-30T10:09:14;6.80;;;4.60;;
2750;SDS011;1383;48.362;10.908;2023-09-30T10:11:44;6.47;;;4.57;;
2750;SDS011;1383;48.362;10.908;2023-09-30T10:14:29;7.60;;;5.63;;
2750;SDS011;1383;48.362;10.908;2023-09-30T10:16:59;5.43;;;4.17;;
2750;SDS011;1383;48.362;10.908;2023-09-30T10:19:28;6.20;;;4.30;;
2750;SDS011;1383;48.362;10.908;2023-09-30T10:24:46;6.13;;;4.50;;
2750;SDS011;1383;48.362;10.908;2023-09-30T10:40:56;6.73;;;4.40;;
2750;SDS011;1383;48.362;10.908;2023-09-30T10:43:32;6.77;;;5.07;;
2750;SDS011;1383;48.362;10.908;2023-09-30T10:46:02;6.90;;;4.77;;
2750;SDS011;1383;48.362;10.908;2023-09-30T10:48:34;6.53;;;5.00;;
2750;SDS011;1383;48.362;10.908;2023-09-30T10:51:14;5.60;;;4.10;;
2750;SDS011;1383;48.362;10.908;2023-09-30T10:53:49;7.27;;;5.30;;
2750;SDS011;1383;48.362;10.908;2023-09-30T10:56:23;8.40;;;5.37;;
2750;SDS011;1383;48.362;10.908;2023-09-30T10:58:55;7.17;;;4.70;;
2750;SDS011;1383;48.362;10.908;2023-09-30T11:01:23;8.77;;;5.70;;
2750;SDS011;1383;48.362;10.908;2023-09-30T11:03:59;7.70;;;4.70;;
2750;SDS011;1383;48.362;10.908;2023-09-30T11:06:32;7.50;;;5.20;;
2750;SDS011;1383;48.362;10.908;2023-09-30T11:09:00;9.20;;;5.30;;
2750;SDS011;1383;48.362;10.908;2023-09-30T11:11:33;7.00;;;4.83;;
2750;SDS011;1383;48.362;10.908;2023-09-30T11:14:01;8.73;;;5.80;;
2750;SDS011;1383;48.362;10.908;2023-09-30T11:16:28;7.47;;;5.20;;
2750;SDS011;1383;48.362;10.908;2023-09-30T11:18:55;8.80;;;5.30;;
2750;SDS011;1383;48.362;10.908;2023-09-30T11:21:22;7.97;;;4.70;;
2750;SDS011;1383;48.362;10.908;2023-09-30T11:23:50;8.83;;;5.30;;
2750;SDS011;1383;48.362;10.908;2023-09-30T11:26:28;10.73;;;5.87;;
2750;SDS011;1383;48.362;10.908;2023-09-30T11:29:07;10.90;;;7.20;;
2750;SDS011;1383;48.362;10.908;2023-09-30T11:31:39;9.07;;;6.50;;
2750;SDS011;1383;48.362;10.908;2023-09-30T11:34:07;10.83;;;6.17;;
2750;SDS011;1383;48.362;10.908;2023-09-30T11:36:35;9.27;;;7.33;;
2750;SDS011;1383;48.362;10.908;2023-09-30T11:39:03;11.60;;;7.13;;
2750;SDS011;1383;48.362;10.908;2023-09-30T11:41:35;12.60;;;9.80;;
2750;SDS011;1383;48.362;10.908;2023-09-30T11:44:06;8.80;;;5.40;;
2750;SDS011;1383;48.362;10.908;2023-09-30T11:46:52;8.57;;;6.20;;
2750;SDS011;1383;48.362;10.908;2023-09-30T11:49:32;9.97;;;6.60;;
2750;SDS011;1383;48.362;10.908;2023-09-30T11:52:07;7.80;;;4.80;;
2750;SDS011;1383;48.362;10.908;2023-09-30T11:54:37;11.43;;;5.40;;
2750;SDS011;1383;48.362;10.908;2023-09-30T11:57:07;9.17;;;6.50;;
2750;SDS011;1383;48.362;10.908;2023-09-30T11:59:38;9.27;;;6.17;;
2750;SDS011;1383;48.362;10.908;2023-09-30T12:02:12;9.10;;;6.33;;
2750;SDS011;1383;48.362;10.908;2023-09-30T12:04:45;10.70;;;6.30;;
2750;SDS011;1383;48.362;10.908;2023-09-30T12:07:14;13.00;;;7.17;;
2750;SDS011;1383;48.362;10.908;2023-09-30T12:09:44;10.20;;;5.97;;
2750;SDS011;1383;48.362;10.908;2023-09-30T12:12:11;10.43;;;6.03;;
2750;SDS011;1383;48.362;10.908;2023-09-30T12:14:41;9.40;;;6.13;;
2750;SDS011;1383;48.362;10.908;2023-09-30T12:17:08;10.87;;;7.17;;
2750;SDS011;1383;48.362;10.908;2023-09-30T12:19:39;10.43;;;6.60;;
2750;SDS011;1383;48.362;10.908;2023-09-30T12:22:08;9.13;;;6.90;;
2750;SDS011;1383;48.362;10.908;2023-09-30T12:24:36;7.40;;;5.60;;
2750;SDS011;1383;48.362;10.908;2023-09-30T12:27:03;9.63;;;5.93;;
2750;SDS011;1383;48.362;10.908;2023-09-30T12:29:31;9.30;;;6.40;;
2750;SDS011;1383;48.362;10.908;2023-09-30T12:31:58;9.80;;;4.97;;
2750;SDS011;1383;48.362;10.908;2023-09-30T12:34:27;15.47;;;7.10;;
2750;SDS011;1383;48.362;10.908;2023-09-30T12:36:54;12.70;;;6.70;;
2750;SDS011;1383;48.362;10.908;2023-09-30T12:39:24;17.33;;;7.03;;
2750;SDS011;1383;48.362;10.908;2023-09-30T12:41:53;9.40;;;6.37;;
2750;SDS011;1383;48.362;10.908;2023-09-30T12:44:21;10.63;;;5.97;;
2750;SDS011;1383;48.362;10.908;2023-09-30T12:46:49;9.60;;;6.40;;
2750;SDS011;1383;48.362;10.908;2023-09-30T12:49:17;9.23;;;6.47;;
2750;SDS011;1383;48.362;10.908;2023-09-30T12:51:45;13.40;;;8.90;;
2750;SDS011;1383;48.362;10.908;2023-09-30T12:54:12;9.20;;;6.30;;
2750;SDS011;1383;48.362;10.908;2023-09-30T12:56:41;8.57;;;5.90;;
2750;SDS011;1383;48.362;10.908;2023-09-30T12:59:08;9.83;;;6.30;;
2750;SDS011;1383;48.362;10.908;2023-09-30T13:01:35;9.70;;;6.43;;
2750;SDS011;1383;48.362;10.908;2023-09-30T13:04:03;12.13;;;6.83;;
2750;SDS011;1383;48.362;10.908;2023-09-30T13:06:34;8.47;;;6.40;;
2750;SDS011;1383;48.362;10.908;2023-09-30T13:09:01;11.50;;;7.27;;
2750;SDS011;1383;48.362;10.908;2023-09-30T13:11:32;10.33;;;6.00;;
2750;SDS011;1383;48.362;10.908;2023-09-30T13:14:09;9.63;;;5.87;;
2750;SDS011;1383;48.362;10.908;2023-09-30T13:16:36;8.20;;;6.00;;
2750;SDS011;1383;48.362;10.908;2023-09-30T13:19:04;8.40;;;6.23;;
2750;SDS011;1383;48.362;10.908;2023-09-30T13:21:33;7.97;;;5.80;;
2750;SDS011;1383;48.362;10.908;2023-09-30T13:24:00;9.40;;;5.90;;
2750;SDS011;1383;48.362;10.908;2023-09-30T13:26:28;11.33;;;7.37;;
2750;SDS011;1383;48.362;10.908;2023-09-30T13:28:56;11.07;;;7.10;;
2750;SDS011;1383;48.362;10.908;2023-09-30T13:31:24;10.23;;;6.50;;
2750;SDS011;1383;48.362;10.908;2023-09-30T13:33:51;10.87;;;6.67;;
2750;SDS011;1383;48.362;10.908;2023-09-30T13:36:18;9.17;;;6.47;;
2750;SDS011;1383;48.362;10.908;2023-09-30T13:38:45;9.83;;;7.00;;
2750;SDS011;1383;48.362;10.908;2023-09-30T13:41:12;12.03;;;7.80;;
2750;SDS011;1383;48.362;10.908;2023-09-30T13:43:39;11.33;;;7.97;;
2750;SDS011;1383;48.362;10.908;2023-09-30T13:46:06;12.97;;;8.90;;
2750;SDS011;1383;48.362;10.908;2023-09-30T13:48:33;15.90;;;9.93;;
2750;SDS011;1383;48.362;10.908;2023-09-30T13:51:04;16.93;;;9.13;;
2750;SDS011;1383;48.362;10.908;2023-09-30T13:53:32;11.40;;;7.20;;
2750;SDS011;1383;48.362;10.908;2023-09-30T13:55:59;12.27;;;6.93;;
2750;SDS011;1383;48.362;10.908;2023-09-30T13:58:26;14.37;;;8.37;;
2750;SDS011;1383;48.362;10.908;2023-09-30T14:00:53;15.80;;;7.40;;
2750;SDS011;1383;48.362;10.908;2023-09-30T14:03:20;13.60;;;7.27;;
2750;SDS011;1383;48.362;10.908;2023-09-30T14:05:47;13.10;;;8.33;;
2750;SDS011;1383;48.362;10.908;2023-09-30T14:08:17;14.43;;;7.30;;
2750;SDS011;1383;48.362;10.908;2023-09-30T14:10:43;11.23;;;7.03;;
2750;SDS011;1383;48.362;10.908;2023-09-30T14:13:10;14.00;;;7.53;;
2750;SDS011;1383;48.362;10.908;2023-09-30T14:15:37;9.80;;;7.70;;
2750;SDS011;1383;48.362;10.908;2023-09-30T14:18:04;9.77;;;6.60;;
2750;SDS011;1383;48.362;10.908;2023-09-30T14:20:31;12.23;;;7.33;;
2750;SDS011;1383;48.362;10.908;2023-09-30T14:23:00;19.03;;;11.77;;
2750;SDS011;1383;48.362;10.908;2023-09-30T14:25:28;17.33;;;10.00;;
2750;SDS011;1383;48.362;10.908;2023-09-30T14:27:55;12.00;;;7.00;;
2750;SDS011;1383;48.362;10.908;2023-09-30T14:30:26;13.47;;;8.23;;
2750;SDS011;1383;48.362;10.908;2023-09-30T14:32:53;14.23;;;10.03;;
2750;SDS011;1383;48.362;10.908;2023-09-30T14:35:20;13.80;;;8.10;;
2750;SDS011;1383;48.362;10.908;2023-09-30T14:37:47;12.30;;;7.70;;
2750;SDS011;1383;48.362;10.908;2023-09-30T14:40:14;11.83;;;8.50;;
2750;SDS011;1383;48.362;10.908;2023-09-30T14:42:42;13.50;;;7.10;;
2750;SDS011;1383;48.362;10.908;2023-09-30T14:45:09;17.50;;;6.83;;
2750;SDS011;1383;48.362;10.908;2023-09-30T14:47:37;12.90;;;8.20;;
2750;SDS011;1383;48.362;10.908;2023-09-30T14:50:07;15.10;;;10.93;;
2750;SDS011;1383;48.362;10.908;2023-09-30T14:52:35;12.83;;;7.27;;
2750;SDS011;1383;48.362;10.908;2023-09-30T14:55:02;11.90;;;6.83;;
2750;SDS011;1383;48.362;10.908;2023-09-30T14:57:30;11.17;;;7.87;;
2750;SDS011;1383;48.362;10.908;2023-09-30T14:59:57;10.00;;;6.63;;
2750;SDS011;1383;48.362;10.908;2023-09-30T15:02:28;9.27;;;7.57;;
2750;SDS011;1383;48.362;10.908;2023-09-30T15:04:55;12.40;;;7.73;;
2750;SDS011;1383;48.362;10.908;2023-09-30T15:07:22;9.00;;;6.20;;
2750;SDS011;1383;48.362;10.908;2023-09-30T15:09:48;9.50;;;6.80;;
2750;SDS011;1383;48.362;10.908;2023-09-30T15:12:17;11.63;;;7.00;;